Time;durP1;ratioP1;P1;durP2;ratioP2;P2;SDS_P1;SDS_P2;PMS_P1;PMS_P2;Temp;Humidity;BMP_temperature;BMP_pressure;BME280_temperature;BME280_humidity;BME280_pressure;Samples;Min_cycle;Max_cycle;Signal;HPM_P1;HPM_P2
2021/10/11 00:00:32;;;;;;;36.65;33.80;;;6.10;92.20;;;;;;5028470;28;20611;-71
2021/10/11 00:02:59;;;;;;;36.35;33.55;;;6.00;92.00;;;;;;5026739;28;20544;-71
2021/10/11 00:05:26;;;;;;;37.13;33.85;;;5.90;92.00;;;;;;5026814;28;20321;-71
2021/10/11 00:07:53;;;;;;;37.85;34.78;;;6.00;91.90;;;;;;5022826;28;20206;-71
2021/10/11 00:10:24;;;;;;;36.67;33.65;;;5.90;91.80;;;;;;5023627;28;20250;-71
2021/10/11 00:12:52;;;;;;;37.53;34.42;;;5.90;92.20;;;;;;5025458;28;20200;-71
2021/10/11 00:15:21;;;;;;;37.42;34.15;;;5.90;92.60;;;;;;5019463;28;20207;-71
2021/10/11 00:17:48;;;;;;;36.92;34.03;;;5.90;92.50;;;;;;5025427;28;20204;-71
2021/10/11 00:20:15;;;;;;;35.88;33.08;;;5.80;92.60;;;;;;5026004;28;20557;-72
2021/10/11 00:22:43;;;;;;;38.60;35.40;;;5.80;92.60;;;;;;5028981;28;20191;-71
2021/10/11 00:25:10;;;;;;;37.33;34.42;;;5.80;92.60;;;;;;5026159;28;20645;-71
2021/10/11 00:27:38;;;;;;;35.90;33.15;;;5.80;92.90;;;;;;5028222;28;20199;-71
2021/10/11 00:30:08;;;;;;;36.70;33.63;;;5.90;92.40;;;;;;5027696;28;20201;-71
2021/10/11 00:32:35;;;;;;;37.85;34.75;;;5.80;92.50;;;;;;5028145;28;20191;-71
2021/10/11 00:35:02;;;;;;;36.42;33.50;;;5.80;92.70;;;;;;5026968;28;20195;-71
2021/10/11 00:37:29;;;;;;;36.47;33.65;;;5.70;92.80;;;;;;5027749;28;20199;-71
2021/10/11 00:39:56;;;;;;;36.33;33.13;;;5.70;92.60;;;;;;5027937;28;20192;-72
2021/10/11 00:42:24;;;;;;;36.20;33.28;;;5.80;92.20;;;;;;5027238;28;20224;-71
2021/10/11 00:44:52;;;;;;;34.03;31.60;;;5.70;91.90;;;;;;5024657;28;20195;-71
2021/10/11 00:47:19;;;;;;;35.65;32.95;;;5.70;92.20;;;;;;5027636;28;20205;-71
2021/10/11 00:49:46;;;;;;;36.72;34.03;;;5.70;92.10;;;;;;5027169;28;20206;-71
2021/10/11 00:52:13;;;;;;;35.40;32.70;;;5.60;91.80;;;;;;5020638;28;20236;-71
2021/10/11 00:54:40;;;;;;;37.35;34.25;;;5.60;92.10;;;;;;5026783;28;20203;-71
2021/10/11 00:57:07;;;;;;;37.55;34.00;;;5.70;91.60;;;;;;5027909;28;20231;-72
2021/10/11 00:59:33;;;;;;;38.15;34.78;;;5.60;92.20;;;;;;5027612;28;20206;-72
2021/10/11 01:02:02;;;;;;;35.65;33.05;;;5.60;93.20;;;;;;5025596;28;20232;-71
2021/10/11 01:04:29;;;;;;;1991.68;321.88;;;5.60;94.10;;;;;;5025272;28;20897;-71
2021/10/11 01:06:56;;;;;;;39.05;35.95;;;5.70;95.00;;;;;;5029230;28;20210;-71
2021/10/11 01:09:23;;;;;;;40.75;37.45;;;5.70;95.90;;;;;;5028387;28;20207;-71
2021/10/11 01:11:50;;;;;;;41.25;37.78;;;5.80;95.60;;;;;;5031532;28;20229;-71
2021/10/11 01:14:18;;;;;;;39.25;35.65;;;5.70;94.50;;;;;;5026467;28;20195;-71
2021/10/11 01:16:45;;;;;;;36.42;33.45;;;5.80;94.40;;;;;;5029889;28;20218;-71
2021/10/11 01:19:14;;;;;;;37.22;34.28;;;5.80;93.90;;;;;;5025852;28;20201;-71
2021/10/11 01:21:42;;;;;;;39.88;36.67;;;5.80;93.70;;;;;;5030744;28;20219;-71
2021/10/11 01:24:09;;;;;;;38.70;35.38;;;5.80;93.50;;;;;;5028284;28;20242;-71
2021/10/11 01:26:38;;;;;;;38.70;35.70;;;5.80;93.30;;;;;;5023674;28;20196;-71
2021/10/11 01:29:05;;;;;;;39.00;35.78;;;5.80;93.00;;;;;;5022154;28;20200;-71
2021/10/11 01:31:32;;;;;;;39.08;35.88;;;5.80;92.60;;;;;;5031891;28;20219;-71
2021/10/11 01:33:59;;;;;;;39.38;35.78;;;5.90;92.50;;;;;;5028976;28;20199;-71
2021/10/11 01:36:26;;;;;;;41.17;37.15;;;5.80;92.30;;;;;;5034127;28;20780;-71
2021/10/11 01:38:55;;;;;;;38.33;34.95;;;5.80;92.40;;;;;;5027844;28;20191;-70
2021/10/11 01:41:23;;;;;;;37.60;34.53;;;5.70;92.50;;;;;;5027455;28;20211;-71
2021/10/11 01:43:50;;;;;;;39.92;36.55;;;5.70;92.50;;;;;;5027813;28;20194;-71
2021/10/11 01:46:17;;;;;;;38.78;35.65;;;5.70;92.60;;;;;;5030495;28;20203;-71
2021/10/11 01:48:44;;;;;;;38.83;35.72;;;5.70;92.70;;;;;;5030294;28;20295;-71
2021/10/11 01:51:12;;;;;;;37.95;34.85;;;5.70;92.50;;;;;;5030936;28;20704;-71
2021/10/11 01:53:39;;;;;;;37.30;34.30;;;5.80;92.20;;;;;;5025957;28;20769;-71
2021/10/11 01:56:07;;;;;;;39.15;35.85;;;5.80;91.90;;;;;;5031106;28;20206;-71
2021/10/11 01:58:34;;;;;;;38.10;35.00;;;5.80;91.90;;;;;;5029620;28;20200;-71
2021/10/11 02:01:01;;;;;;;37.58;34.58;;;5.80;91.70;;;;;;5029253;28;20224;-71
2021/10/11 02:03:28;;;;;;;37.72;34.72;;;5.70;91.70;;;;;;5025141;28;20200;-71
2021/10/11 02:05:55;;;;;;;39.28;36.17;;;5.70;92.10;;;;;;5031417;28;20681;-71
2021/10/11 02:08:22;;;;;;;39.60;36.17;;;5.80;91.80;;;;;;5025259;28;20213;-71
2021/10/11 02:10:49;;;;;;;36.30;33.20;;;5.80;91.60;;;;;;5028334;28;20215;-71
2021/10/11 02:13:17;;;;;;;39.78;36.67;;;5.70;91.80;;;;;;5026703;28;20582;-71
2021/10/11 02:15:44;;;;;;;36.95;33.97;;;5.70;91.90;;;;;;5029643;28;20192;-71
2021/10/11 02:18:11;;;;;;;38.13;34.95;;;5.80;91.70;;;;;;5028927;28;20312;-71
2021/10/11 02:20:38;;;;;;;37.95;34.53;;;5.70;91.60;;;;;;5029767;28;20232;-71
2021/10/11 02:23:06;;;;;;;38.00;34.72;;;5.70;91.80;;;;;;5026084;28;20200;-71
2021/10/11 02:25:36;;;;;;;37.42;34.38;;;5.60;91.70;;;;;;5028122;28;20211;-72
2021/10/11 02:28:03;;;;;;;37.28;34.38;;;5.70;91.80;;;;;;5021753;28;20306;-70
2021/10/11 02:30:32;;;;;;;38.33;35.25;;;5.60;91.70;;;;;;5020658;28;20302;-71
2021/10/11 02:32:59;;;;;;;39.33;36.03;;;5.60;91.90;;;;;;5026153;28;20251;-70
2021/10/11 02:35:25;;;;;;;37.90;34.90;;;5.60;91.80;;;;;;5028870;28;20200;-71
2021/10/11 02:37:52;;;;;;;40.08;36.78;;;5.50;91.80;;;;;;5026708;28;20196;-71
2021/10/11 02:40:19;;;;;;;38.15;35.10;;;5.50;91.80;;;;;;5028075;28;20582;-71
2021/10/11 02:42:46;;;;;;;39.92;36.53;;;5.50;91.90;;;;;;5027996;28;20224;-71
2021/10/11 02:45:13;;;;;;;37.85;34.80;;;5.50;91.80;;;;;;5025742;28;20201;-71
2021/10/11 02:47:41;;;;;;;37.88;34.67;;;5.40;91.90;;;;;;5030542;28;20216;-71
2021/10/11 02:50:09;;;;;;;38.67;35.30;;;5.50;91.80;;;;;;5028808;28;20235;-71
2021/10/11 02:52:36;;;;;;;42.45;39.03;;;5.40;91.90;;;;;;5029018;28;20243;-71
2021/10/11 02:55:05;;;;;;;38.92;35.72;;;5.40;92.00;;;;;;5028830;28;20294;-71
2021/10/11 02:57:32;;;;;;;39.33;36.28;;;5.40;92.10;;;;;;5028368;28;20285;-71
2021/10/11 02:59:59;;;;;;;39.42;36.25;;;5.40;92.00;;;;;;5028744;28;20205;-71
2021/10/11 03:02:26;;;;;;;37.75;34.70;;;5.40;92.00;;;;;;5025377;28;20204;-71
2021/10/11 03:04:54;;;;;;;36.80;33.90;;;5.40;91.70;;;;;;5028605;28;20208;-71
2021/10/11 03:07:21;;;;;;;40.53;37.25;;;5.40;91.60;;;;;;5029294;28;20205;-71
2021/10/11 03:09:48;;;;;;;37.55;34.38;;;5.40;91.70;;;;;;5027174;28;20291;-70
2021/10/11 03:12:15;;;;;;;39.10;36.10;;;5.30;91.80;;;;;;5028134;28;20329;-71
2021/10/11 03:14:42;;;;;;;41.40;37.97;;;5.30;91.70;;;;;;5027690;28;20279;-71
2021/10/11 03:17:09;;;;;;;42.42;39.10;;;5.30;91.80;;;;;;5021082;28;20275;-71
2021/10/11 03:19:39;;;;;;;39.03;35.83;;;5.30;91.60;;;;;;5029961;28;20205;-71
2021/10/11 03:22:07;;;;;;;39.78;36.67;;;5.30;91.80;;;;;;5028810;28;20614;-71
2021/10/11 03:24:34;;;;;;;42.15;38.83;;;5.30;91.70;;;;;;5028168;28;20628;-71
2021/10/11 03:27:01;;;;;;;41.85;38.65;;;5.20;92.00;;;;;;5029803;28;20205;-71
2021/10/11 03:29:28;;;;;;;41.30;37.75;;;5.20;92.40;;;;;;5027203;28;20203;-71
2021/10/11 03:31:55;;;;;;;42.13;38.47;;;5.30;92.60;;;;;;5027579;28;20316;-71
2021/10/11 03:34:22;;;;;;;38.67;35.40;;;5.30;92.60;;;;;;5026705;28;20214;-71
2021/10/11 03:36:49;;;;;;;41.25;37.80;;;5.30;92.60;;;;;;5028735;28;20281;-71
2021/10/11 03:39:17;;;;;;;74.32;40.15;;;5.30;93.50;;;;;;5028961;28;20197;-71
2021/10/11 03:41:44;;;;;;;1978.63;307.80;;;5.30;94.50;;;;;;5027365;28;20223;-71
2021/10/11 03:44:11;;;;;;;41.25;37.47;;;5.30;95.90;;;;;;5020482;28;20207;-71
2021/10/11 03:46:38;;;;;;;378.25;76.32;;;5.40;95.00;;;;;;5027751;28;20620;-71
2021/10/11 03:49:05;;;;;;;41.05;37.75;;;5.30;94.70;;;;;;5028725;28;20215;-71
2021/10/11 03:51:33;;;;;;;40.00;36.72;;;5.30;94.90;;;;;;5027791;28;20217;-71
2021/10/11 03:54:00;;;;;;;41.53;38.03;;;5.30;94.70;;;;;;5028019;28;20201;-71
2021/10/11 03:56:28;;;;;;;41.92;38.85;;;5.30;93.70;;;;;;5026725;28;20887;-71
2021/10/11 03:58:55;;;;;;;45.05;41.20;;;5.20;93.50;;;;;;5029002;28;20668;-71
2021/10/11 04:01:22;;;;;;;46.78;42.72;;;5.20;93.20;;;;;;5027706;28;20225;-71
2021/10/11 04:03:50;;;;;;;42.60;39.15;;;5.20;93.00;;;;;;5026220;28;20195;-71
2021/10/11 04:06:17;;;;;;;42.40;39.00;;;5.20;93.50;;;;;;5029223;28;20249;-71
2021/10/11 04:08:46;;;;;;;42.00;38.50;;;5.10;93.50;;;;;;5027878;28;20209;-70
2021/10/11 04:11:23;;;;;;;43.50;39.72;;;5.20;93.10;;;;;;5028619;28;20216;-71
2021/10/11 04:13:52;;;;;;;41.00;37.40;;;5.20;92.40;;;;;;5017894;28;20536;-70
2021/10/11 04:16:19;;;;;;;43.78;39.83;;;5.20;92.30;;;;;;5030050;28;20205;-73
2021/10/11 04:18:46;;;;;;;45.15;41.35;;;5.20;92.20;;;;;;5026499;28;20196;-70
2021/10/11 04:21:13;;;;;;;42.67;38.90;;;5.10;92.90;;;;;;5028252;28;20225;-71
2021/10/11 04:23:40;;;;;;;43.53;39.80;;;5.10;92.80;;;;;;5025288;28;20283;-71
2021/10/11 04:26:07;;;;;;;42.08;38.72;;;5.10;92.80;;;;;;5027662;28;20294;-71
2021/10/11 04:28:34;;;;;;;42.40;38.65;;;5.10;92.70;;;;;;5025093;28;20204;-71
2021/10/11 04:31:02;;;;;;;43.72;40.20;;;5.10;92.50;;;;;;5028669;28;20616;-71
2021/10/11 04:33:29;;;;;;;43.08;39.78;;;5.10;92.50;;;;;;5025907;28;20226;-72
2021/10/11 04:35:56;;;;;;;42.63;39.22;;;5.10;92.50;;;;;;5028981;28;20285;-76
2021/10/11 04:38:23;;;;;;;43.33;39.90;;;5.10;92.30;;;;;;5027065;28;20223;-70
2021/10/11 04:40:50;;;;;;;45.03;41.20;;;5.20;92.20;;;;;;5033671;28;20560;-70
2021/10/11 04:43:17;;;;;;;43.35;39.75;;;5.30;92.00;;;;;;5026369;28;20190;-70
2021/10/11 04:45:44;;;;;;;44.88;40.72;;;5.20;91.80;;;;;;5020310;28;20240;-70
2021/10/11 04:48:12;;;;;;;46.63;42.92;;;5.20;91.70;;;;;;5027030;28;20640;-70
2021/10/11 04:50:40;;;;;;;41.95;38.65;;;5.20;91.60;;;;;;5024063;28;20220;-71
2021/10/11 04:53:09;;;;;;;46.13;42.03;;;5.10;91.90;;;;;;5026041;28;20672;-71
2021/10/11 04:55:36;;;;;;;44.13;40.60;;;5.10;92.00;;;;;;5027900;28;20201;-71
2021/10/11 04:58:03;;;;;;;46.47;42.75;;;5.10;92.20;;;;;;5027604;28;20467;-73
2021/10/11 05:00:30;;;;;;;43.30;39.88;;;5.10;92.40;;;;;;5029237;28;20218;-73
2021/10/11 05:02:57;;;;;;;44.97;41.40;;;5.10;92.30;;;;;;5026315;28;20579;-71
2021/10/11 05:05:26;;;;;;;45.67;42.05;;;5.10;92.40;;;;;;5029038;28;20683;-71
2021/10/11 05:07:53;;;;;;;44.63;40.85;;;5.20;92.30;;;;;;5028977;28;20274;-72
2021/10/11 05:10:20;;;;;;;45.60;42.00;;;5.20;92.20;;;;;;5027030;28;20250;-72
2021/10/11 05:12:48;;;;;;;47.22;43.38;;;5.20;92.10;;;;;;5019621;28;20234;-74
2021/10/11 05:15:15;;;;;;;43.85;40.20;;;5.20;92.20;;;;;;5023005;28;20200;-75
2021/10/11 05:17:43;;;;;;;43.65;40.15;;;5.20;92.10;;;;;;5021830;28;20206;-74
2021/10/11 05:20:11;;;;;;;43.72;39.90;;;5.10;92.30;;;;;;5026124;28;20209;-70
2021/10/11 05:22:40;;;;;;;42.65;39.00;;;5.10;92.30;;;;;;5029278;28;20652;-72
2021/10/11 05:25:08;;;;;;;45.03;40.92;;;5.10;92.40;;;;;;5027324;28;20202;-72
2021/10/11 05:27:35;;;;;;;44.70;40.83;;;5.10;92.20;;;;;;5023765;28;20216;-72
2021/10/11 05:30:02;;;;;;;45.92;41.97;;;5.10;92.10;;;;;;5020498;28;20202;-73
2021/10/11 05:32:29;;;;;;;45.22;41.45;;;5.10;91.80;;;;;;5027884;28;20463;-72
2021/10/11 05:34:58;;;;;;;42.80;39.20;;;5.10;91.90;;;;;;5027546;28;20596;-72
2021/10/11 05:37:25;;;;;;;41.75;38.28;;;5.10;92.10;;;;;;5026045;28;20290;-72
2021/10/11 05:39:54;;;;;;;45.30;41.45;;;5.10;92.20;;;;;;5027323;28;20205;-72
2021/10/11 05:42:20;;;;;;;42.75;39.00;;;5.10;92.20;;;;;;5027526;28;20217;-73
2021/10/11 05:44:47;;;;;;;44.53;40.53;;;5.20;92.00;;;;;;5019718;28;20194;-72
2021/10/11 05:47:14;;;;;;;45.78;41.97;;;5.20;91.60;;;;;;5026034;28;20563;-73
2021/10/11 05:49:42;;;;;;;43.67;40.22;;;5.10;91.70;;;;;;5025564;28;20235;-70
2021/10/11 05:52:09;;;;;;;43.92;40.22;;;5.00;92.10;;;;;;5027939;28;20304;-71
2021/10/11 05:54:35;;;;;;;45.05;41.17;;;5.10;92.50;;;;;;5025249;28;20212;-71
2021/10/11 05:57:04;;;;;;;45.40;41.60;;;5.20;91.60;;;;;;5023822;28;20952;-72
2021/10/11 05:59:31;;;;;;;44.90;40.92;;;5.10;91.80;;;;;;5027393;28;20220;-71
2021/10/11 06:01:58;;;;;;;42.45;38.70;;;5.00;92.20;;;;;;5030475;28;20209;-70
2021/10/11 06:04:25;;;;;;;44.85;41.13;;;5.00;92.30;;;;;;5029562;28;20208;-71
2021/10/11 06:06:51;;;;;;;44.53;40.53;;;5.10;92.30;;;;;;5030935;28;20198;-72
2021/10/11 06:09:18;;;;;;;44.58;40.83;;;5.20;92.10;;;;;;5029826;28;20195;-72
2021/10/11 06:11:46;;;;;;;44.85;40.97;;;5.20;91.90;;;;;;5031615;28;20572;-71
2021/10/11 06:14:14;;;;;;;44.15;40.53;;;5.20;92.00;;;;;;5030044;28;20215;-71
2021/10/11 06:16:41;;;;;;;44.80;41.03;;;5.30;94.70;;;;;;5031368;28;20285;-71
2021/10/11 06:19:08;;;;;;;44.67;41.00;;;5.40;94.70;;;;;;5028438;28;20193;-70
2021/10/11 06:21:35;;;;;;;432.20;76.20;;;5.50;94.10;;;;;;5031422;28;20602;-71
2021/10/11 06:24:03;;;;;;;52.50;43.80;;;5.60;96.00;;;;;;5027767;28;20212;-71
2021/10/11 06:26:30;;;;;;;46.85;42.90;;;5.80;95.20;;;;;;5025562;28;20505;-70
2021/10/11 06:28:57;;;;;;;46.15;40.85;;;5.90;93.80;;;;;;5027810;28;20209;-70
2021/10/11 06:31:25;;;;;;;42.15;38.55;;;5.90;93.00;;;;;;5031094;28;20690;-70
2021/10/11 06:33:52;;;;;;;40.92;37.55;;;5.90;91.80;;;;;;5029031;28;20223;-72
2021/10/11 06:36:19;;;;;;;40.35;36.95;;;5.90;91.70;;;;;;5029833;28;20804;-70
2021/10/11 06:38:46;;;;;;;42.08;38.53;;;6.00;91.50;;;;;;5027355;28;20205;-71
2021/10/11 06:41:13;;;;;;;43.08;39.78;;;6.00;91.10;;;;;;5030090;28;20221;-71
2021/10/11 06:43:42;;;;;;;44.55;40.75;;;6.10;90.50;;;;;;5026301;28;20202;-71
2021/10/11 06:46:09;;;;;;;43.65;39.75;;;6.10;90.90;;;;;;5027747;28;20207;-70
2021/10/11 06:48:41;;;;;;;45.03;41.33;;;6.20;90.70;;;;;;5029088;28;20693;-71
2021/10/11 06:51:08;;;;;;;42.65;39.25;;;6.20;90.50;;;;;;5031112;28;20359;-71
2021/10/11 06:53:38;;;;;;;40.85;37.45;;;6.30;90.70;;;;;;5028422;28;20247;-70
2021/10/11 06:56:06;;;;;;;42.67;39.35;;;6.40;90.50;;;;;;5030697;28;20210;-70
2021/10/11 06:58:33;;;;;;;42.13;38.63;;;6.60;89.80;;;;;;5028853;28;20283;-69
2021/10/11 07:01:00;;;;;;;150.90;48.63;;;6.70;89.10;;;;;;5028529;28;20303;-70
2021/10/11 07:03:27;;;;;;;42.22;38.92;;;6.70;88.90;;;;;;5027379;28;20194;-69
2021/10/11 07:05:59;;;;;;;43.70;39.95;;;6.90;89.40;;;;;;5030276;28;20204;-71
2021/10/11 07:08:26;;;;;;;42.33;38.80;;;7.00;89.20;;;;;;5028739;28;20275;-70
2021/10/11 07:10:54;;;;;;;43.42;39.83;;;7.10;90.00;;;;;;5030284;28;20300;-70
2021/10/11 07:13:21;;;;;;;42.20;38.55;;;7.30;90.10;;;;;;5028261;28;20377;-71
2021/10/11 07:15:48;;;;;;;41.17;38.15;;;7.40;90.90;;;;;;5028998;28;20201;-71
2021/10/11 07:18:15;;;;;;;42.08;38.88;;;7.50;89.20;;;;;;5028452;28;20676;-71
2021/10/11 07:20:45;;;;;;;41.03;37.78;;;7.60;88.50;;;;;;5030578;28;20213;-72
2021/10/11 07:23:14;;;;;;;39.50;36.58;;;7.80;88.60;;;;;;5027084;28;20193;-72
2021/10/11 07:25:41;;;;;;;42.90;39.70;;;7.90;87.60;;;;;;5018960;28;20288;-73
2021/10/11 07:28:08;;;;;;;43.47;39.90;;;8.00;87.30;;;;;;5024187;28;20614;-73
2021/10/11 07:30:35;;;;;;;42.55;38.53;;;8.20;87.00;;;;;;5023516;28;20218;-73
2021/10/11 07:33:05;;;;;;;42.50;38.95;;;8.30;87.50;;;;;;5026803;28;20231;-73
2021/10/11 07:35:32;;;;;;;43.10;39.72;;;8.50;87.00;;;;;;5029361;28;20288;-73
2021/10/11 07:38:00;;;;;;;42.70;39.17;;;8.70;86.40;;;;;;5028306;28;20282;-74
2021/10/11 07:40:29;;;;;;;42.25;39.00;;;8.80;85.80;;;;;;5027154;28;20299;-74
2021/10/11 07:42:55;;;;;;;42.20;38.60;;;9.00;85.00;;;;;;5028428;28;20204;-74
2021/10/11 07:45:22;;;;;;;40.05;36.92;;;9.10;84.10;;;;;;5023509;28;20201;-73
2021/10/11 07:47:49;;;;;;;41.33;38.00;;;9.20;83.30;;;;;;5027900;28;20284;-73
2021/10/11 07:50:16;;;;;;;40.75;37.58;;;9.30;82.50;;;;;;5027835;28;20194;-71
2021/10/11 07:52:43;;;;;;;40.35;37.30;;;9.40;82.00;;;;;;5028062;28;20713;-72
2021/10/11 07:55:10;;;;;;;43.25;39.75;;;9.50;81.70;;;;;;5026002;28;20206;-72
2021/10/11 07:57:39;;;;;;;42.10;38.70;;;9.60;80.90;;;;;;5028634;28;20201;-72
2021/10/11 08:00:08;;;;;;;42.10;38.90;;;9.80;81.10;;;;;;5027387;28;20463;-72
2021/10/11 08:02:35;;;;;;;43.10;39.63;;;10.00;80.00;;;;;;5026184;28;20468;-71
2021/10/11 08:05:02;;;;;;;42.73;39.30;;;10.10;79.80;;;;;;5027293;28;20547;-71
2021/10/11 08:07:29;;;;;;;41.23;37.77;;;10.10;79.00;;;;;;5029416;28;20484;-71
2021/10/11 08:09:56;;;;;;;41.00;37.67;;;10.20;78.30;;;;;;5027059;28;20452;-71
2021/10/11 08:12:23;;;;;;;41.70;38.40;;;10.20;78.50;;;;;;5028688;28;21060;-71
2021/10/11 08:14:51;;;;;;;39.70;36.40;;;10.30;78.40;;;;;;5026371;28;20491;-71
2021/10/11 08:17:18;;;;;;;41.30;38.13;;;10.40;78.20;;;;;;5029333;28;20466;-71
2021/10/11 08:19:45;;;;;;;40.17;37.17;;;10.60;77.80;;;;;;5026909;28;20474;-71
2021/10/11 08:22:12;;;;;;;42.83;39.53;;;10.70;77.50;;;;;;5027079;28;20497;-71
2021/10/11 08:24:39;;;;;;;42.00;38.60;;;10.90;77.30;;;;;;5027358;28;20460;-71
2021/10/11 08:27:06;;;;;;;43.03;39.83;;;10.90;76.90;;;;;;5028733;28;20881;-71
2021/10/11 08:29:33;;;;;;;42.47;39.17;;;11.10;76.40;;;;;;5016952;28;20465;-72
2021/10/11 08:32:01;;;;;;;41.87;38.60;;;11.20;76.10;;;;;;5026621;28;20499;-71
2021/10/11 08:34:28;;;;;;;41.37;38.30;;;11.30;76.00;;;;;;5026574;28;20486;-71
2021/10/11 08:36:55;;;;;;;41.40;38.20;;;11.40;75.40;;;;;;5028189;28;20472;-71
2021/10/11 08:39:22;;;;;;;40.30;37.00;;;11.50;74.90;;;;;;5026252;28;20464;-72
2021/10/11 08:41:51;;;;;;;44.00;40.00;;;11.60;74.60;;;;;;5016911;28;20604;-71
2021/10/11 08:44:17;;;;;;;43.33;39.90;;;11.70;74.50;;;;;;5026511;28;21124;-70
2021/10/11 08:46:46;;;;;;;41.50;38.60;;;11.80;74.10;;;;;;5028047;28;20547;-71
2021/10/11 08:49:14;;;;;;;42.87;39.50;;;11.90;73.20;;;;;;5024363;28;20966;-71
2021/10/11 08:51:41;;;;;;;44.03;40.43;;;12.00;72.50;;;;;;5027344;28;20486;-71
2021/10/11 08:54:08;;;;;;;42.40;39.20;;;12.10;72.80;;;;;;5025320;28;20479;-71
2021/10/11 08:56:35;;;;;;;42.27;39.00;;;12.30;72.00;;;;;;5029367;28;21164;-71
2021/10/11 08:59:02;;;;;;;43.50;40.00;;;12.30;71.70;;;;;;5026410;28;20807;-71
2021/10/11 09:01:29;;;;;;;43.47;40.07;;;12.40;71.10;;;;;;5028037;28;21009;-71
2021/10/11 09:03:55;;;;;;;43.30;39.87;;;12.70;70.40;;;;;;5024510;28;20899;-71
2021/10/11 09:06:24;;;;;;;44.43;40.77;;;12.80;70.40;;;;;;5029428;28;20448;-71
2021/10/11 09:08:51;;;;;;;44.53;41.03;;;13.00;70.00;;;;;;5027407;28;20471;-71
2021/10/11 09:11:18;;;;;;;41.90;38.50;;;13.00;69.40;;;;;;5027701;28;20574;-71
2021/10/11 09:13:51;;;;;;;42.37;38.90;;;13.20;68.80;;;;;;5026400;28;20549;-71
2021/10/11 09:16:29;;;;;;;42.77;39.37;;;13.20;68.90;;;;;;5028345;28;20535;-71
2021/10/11 09:18:58;;;;;;;43.37;40.00;;;13.30;69.00;;;;;;5026592;28;20949;-71
2021/10/11 09:21:33;;;;;;;42.03;38.83;;;13.40;69.10;;;;;;5028989;28;20483;-71
2021/10/11 09:24:08;;;;;;;43.80;40.40;;;13.40;68.10;;;;;;5026625;28;21020;-72
2021/10/11 09:26:43;;;;;;;43.37;39.80;;;13.50;67.80;;;;;;5027453;28;20987;-71
2021/10/11 09:29:10;;;;;;;41.37;38.30;;;13.50;67.50;;;;;;5026225;28;20524;-71
2021/10/11 09:31:39;;;;;;;42.40;39.00;;;13.40;67.70;;;;;;5030254;28;20555;-71
2021/10/11 09:34:07;;;;;;;42.27;39.07;;;13.30;67.60;;;;;;5033960;28;20935;-72
2021/10/11 09:36:35;;;;;;;43.47;39.97;;;13.20;68.30;;;;;;5031868;28;20985;-72
2021/10/11 09:39:03;;;;;;;40.70;37.60;;;13.30;68.10;;;;;;5029987;28;20463;-72
2021/10/11 09:41:30;;;;;;;44.00;40.57;;;13.30;68.50;;;;;;5026433;28;20511;-72
2021/10/11 09:43:57;;;;;;;43.03;39.57;;;13.40;68.50;;;;;;5028147;28;20452;-71
2021/10/11 09:46:27;;;;;;;41.73;38.17;;;13.50;68.40;;;;;;5031837;28;20459;-71
2021/10/11 09:48:57;;;;;;;41.10;37.60;;;13.60;68.30;;;;;;5031567;28;20462;-72
2021/10/11 09:51:24;;;;;;;44.17;40.70;;;13.60;68.50;;;;;;5031122;28;20485;-72
2021/10/11 09:53:54;;;;;;;42.63;38.60;;;13.60;68.70;;;;;;5029849;28;20471;-71
2021/10/11 09:56:25;;;;;;;43.97;40.57;;;13.60;68.50;;;;;;5032647;28;20972;-71
2021/10/11 09:58:53;;;;;;;42.20;39.10;;;13.50;67.50;;;;;;5029887;28;20478;-71
2021/10/11 10:01:19;;;;;;;42.43;39.30;;;13.60;67.60;;;;;;5031131;28;20479;-72
2021/10/11 10:03:48;;;;;;;41.73;38.73;;;13.30;67.90;;;;;;5027987;28;20556;-71
2021/10/11 10:06:15;;;;;;;42.90;39.20;;;13.40;68.30;;;;;;5031824;28;20547;-72
2021/10/11 10:08:44;;;;;;;44.50;40.93;;;13.50;67.60;;;;;;5030310;28;20458;-72
2021/10/11 10:11:13;;;;;;;41.67;38.50;;;13.70;67.70;;;;;;5030464;28;20471;-72
2021/10/11 10:13:47;;;;;;;42.07;38.87;;;13.80;67.70;;;;;;5029514;28;20557;-72
2021/10/11 10:16:15;;;;;;;41.67;38.10;;;13.80;67.50;;;;;;5032060;28;20460;-72
2021/10/11 10:18:44;;;;;;;44.67;40.83;;;13.90;67.20;;;;;;5028576;28;20555;-72
2021/10/11 10:21:12;;;;;;;40.20;37.20;;;14.10;66.90;;;;;;5026143;28;20486;-72
2021/10/11 10:23:40;;;;;;;42.43;38.90;;;14.10;66.70;;;;;;5029930;28;20462;-72
2021/10/11 10:26:09;;;;;;;43.77;40.07;;;14.10;66.50;;;;;;5028878;28;20476;-72
2021/10/11 10:28:45;;;;;;;40.60;37.40;;;14.20;66.30;;;;;;5030744;28;20452;-72
2021/10/11 10:31:25;;;;;;;45.23;41.63;;;14.50;64.80;;;;;;5031085;28;20479;-72
2021/10/11 10:33:51;;;;;;;40.63;37.57;;;14.30;64.90;;;;;;5027459;28;20574;-71
2021/10/11 10:36:22;;;;;;;44.13;40.73;;;14.20;65.70;;;;;;5031091;28;20531;-72
2021/10/11 10:39:00;;;;;;;39.87;36.90;;;14.20;66.10;;;;;;5029019;28;20531;-72
2021/10/11 10:41:27;;;;;;;41.43;37.87;;;14.40;66.40;;;;;;5029273;28;21222;-72
2021/10/11 10:43:56;;;;;;;45.07;40.97;;;14.40;65.30;;;;;;5027028;28;20456;-72
2021/10/11 10:46:23;;;;;;;40.90;37.87;;;14.30;65.00;;;;;;5030387;28;20584;-72
2021/10/11 10:48:52;;;;;;;43.00;39.70;;;14.40;65.00;;;;;;5025670;28;20472;-72
2021/10/11 10:51:20;;;;;;;42.43;38.97;;;14.50;64.80;;;;;;5031712;28;20472;-72
2021/10/11 10:53:52;;;;;;;42.80;39.40;;;14.70;64.50;;;;;;5029385;28;20458;-72
2021/10/11 10:56:19;;;;;;;45.13;41.40;;;14.80;64.70;;;;;;5031626;28;20479;-72
2021/10/11 10:58:46;;;;;;;45.73;42.10;;;14.90;64.20;;;;;;5026034;28;20464;-72
2021/10/11 11:01:15;;;;;;;43.90;40.20;;;14.90;64.00;;;;;;5029970;28;20554;-72
2021/10/11 11:03:42;;;;;;;46.00;42.03;;;15.00;64.00;;;;;;5024239;28;20465;-72
2021/10/11 11:06:09;;;;;;;43.97;40.17;;;15.10;63.70;;;;;;5029318;28;20986;-72
2021/10/11 11:08:36;;;;;;;43.27;39.53;;;15.00;63.90;;;;;;5025724;28;20459;-74
2021/10/11 11:11:11;;;;;;;43.00;39.20;;;15.00;63.80;;;;;;5026562;28;20860;-71
2021/10/11 11:13:38;;;;;;;42.60;38.67;;;15.00;63.60;;;;;;5026609;28;20466;-71
2021/10/11 11:16:05;;;;;;;43.80;40.50;;;15.10;63.60;;;;;;5029763;28;20552;-76
2021/10/11 11:18:33;;;;;;;42.93;39.60;;;15.10;62.90;;;;;;5026466;28;20587;-72
2021/10/11 11:21:00;;;;;;;42.27;39.23;;;15.20;62.70;;;;;;5028455;28;20903;-75
2021/10/11 11:23:31;;;;;;;44.80;41.40;;;15.30;62.90;;;;;;5028573;28;20466;-72
2021/10/11 11:26:04;;;;;;;42.40;38.87;;;15.40;63.10;;;;;;5030021;28;20448;-72
2021/10/11 11:28:31;;;;;;;42.43;39.03;;;15.50;62.80;;;;;;5032812;28;20586;-72
2021/10/11 11:31:04;;;;;;;41.83;38.43;;;15.50;62.80;;;;;;5023334;28;20490;-73
2021/10/11 11:33:34;;;;;;;42.03;38.87;;;15.60;61.60;;;;;;5027291;28;20452;-73
2021/10/11 11:36:04;;;;;;;41.60;38.40;;;15.50;61.00;;;;;;5030306;28;20571;-73
2021/10/11 11:38:40;;;;;;;42.77;39.23;;;15.50;60.80;;;;;;5027544;28;20539;-72
2021/10/11 11:41:08;;;;;;;39.80;36.70;;;15.30;61.50;;;;;;5025470;28;20481;-73
2021/10/11 11:43:38;;;;;;;40.80;37.63;;;15.10;61.60;;;;;;5015195;28;20468;-73
2021/10/11 11:46:07;;;;;;;42.53;39.13;;;15.20;61.90;;;;;;5029168;28;20936;-73
2021/10/11 11:48:37;;;;;;;42.27;38.80;;;15.20;61.50;;;;;;5027345;28;20475;-71
2021/10/11 11:51:06;;;;;;;41.17;38.07;;;15.10;62.20;;;;;;5029669;28;20472;-71
2021/10/11 11:53:38;;;;;;;40.20;37.33;;;15.10;62.20;;;;;;5023870;28;20468;-74
2021/10/11 11:56:07;;;;;;;44.37;40.47;;;15.10;61.70;;;;;;5024738;28;20570;-72
2021/10/11 11:58:36;;;;;;;40.00;36.90;;;14.90;62.20;;;;;;5027185;28;20464;-74
2021/10/11 12:01:09;;;;;;;41.20;37.80;;;14.70;63.30;;;;;;5029614;28;20571;-72
2021/10/11 12:03:39;;;;;;;41.80;38.50;;;14.60;63.60;;;;;;5024848;28;20563;-73
2021/10/11 12:06:07;;;;;;;40.30;36.97;;;14.60;63.90;;;;;;5020457;28;20464;-72
2021/10/11 12:08:35;;;;;;;41.33;38.13;;;14.60;64.20;;;;;;5027442;28;20902;-71
2021/10/11 12:11:04;;;;;;;41.23;38.03;;;14.90;63.50;;;;;;5024396;28;20492;-72
2021/10/11 12:13:33;;;;;;;42.23;38.90;;;14.80;63.80;;;;;;5024765;28;20471;-71
2021/10/11 12:16:02;;;;;;;41.87;38.17;;;14.90;64.00;;;;;;5029036;28;21005;-72
2021/10/11 12:18:41;;;;;;;40.60;37.47;;;14.80;64.60;;;;;;5027713;28;21004;-72
2021/10/11 12:21:20;;;;;;;42.57;38.30;;;15.10;64.20;;;;;;5028867;28;20498;-72
2021/10/11 12:23:48;;;;;;;44.30;40.63;;;15.40;62.80;;;;;;5027182;28;20456;-71
2021/10/11 12:26:14;;;;;;;40.53;37.40;;;15.40;62.50;;;;;;5024262;28;20482;-72
2021/10/11 12:28:49;;;;;;;42.30;38.63;;;15.20;63.00;;;;;;5027223;28;20460;-71
2021/10/11 12:31:21;;;;;;;40.67;37.57;;;15.10;63.10;;;;;;5028193;28;20489;-71
2021/10/11 12:33:50;;;;;;;41.70;38.53;;;15.20;63.30;;;;;;5024396;28;20539;-71
2021/10/11 12:36:18;;;;;;;39.90;37.00;;;15.30;63.50;;;;;;5023068;28;20485;-71